Flight Track Log - Related Links

Times and Time Zones

All times are in EDT time to prevent confusion due to time zone crossing. See the AAL1326 flight status page for this flight to view local times or setup timezone preferences in your user account.

Time Position Orientation Groundspeed Altitude Reporting Facility
EDT Latitude Longitude Course Direction KTS MPH feet Rate Location/Type
Mon 04:41:00 PM 39.3975 -94.5755 46° Northeast  Level FlightAware Approximate
Mon 04:41:42 PM 39.4280 -94.5870 41° Northeast 268 308 6,200  Level FlightAware ADS-B
Mon 04:41:57 PM 39.4370 -94.5750 46° Northeast 268 308 6,800 2,933 Climbing FlightAware ADS-B
Mon 04:42:00 PM 39.4692 -94.4910 41° Northeast  Level FlightAware Approximate
Mon 04:42:27 PM 39.4660 -94.5350 47° Northeast 278 320 8,400  Level FlightAware ADS-B
Mon 04:42:42 PM 39.4810 -94.5150 46° Northeast 285 328 9,100 2,727 Climbing FlightAware ADS-B
Mon 04:43:22 PM 39.5180 -94.4660 46° Northeast 304 350 10,900 1,950 Climbing FlightAware ADS-B
Mon 04:44:02 PM 39.5620 -94.4070 46° Northeast 358 412 11,700 2,047 Climbing FlightAware ADS-B
Mon 04:44:47 PM 39.6140 -94.3380 46° Northeast 371 427 13,800 2,965 Climbing FlightAware ADS-B
Mon 04:45:27 PM 39.6630 -94.2720 46° Northeast 383 441 15,900 2,965 Climbing FlightAware ADS-B
Mon 04:46:12 PM 39.7190 -94.1960 46° Northeast 395 455 18,000 2,640 Climbing FlightAware ADS-B
Mon 04:47:07 PM 39.7870 -94.1020 47° Northeast 411 473 20,300 1,800 Climbing FlightAware ADS-B
Mon 04:47:42 PM 39.8300 -94.0410 47° Northeast 411 473 20,700 2,850 Climbing FlightAware ADS-B
Mon 04:48:27 PM 39.8960 -93.9510 46° Northeast 412 474 24,100 3,200 Climbing FlightAware ADS-B
Mon 04:49:12 PM 39.9540 -93.8710 47° Northeast 426 490 25,500 1,906 Climbing FlightAware ADS-B
Mon 04:49:52 PM 40.0090 -93.7930 47° Northeast 438 504 26,800 1,976 Climbing FlightAware ADS-B
Mon 04:50:37 PM 40.0360 -93.6870 72° East 440 506 28,300 2,188 Climbing FlightAware ADS-B
Mon 04:51:17 PM 40.0150 -93.5810 104° East 433 498 29,900 2,188 Climbing FlightAware ADS-B
Mon 04:52:02 PM 39.9850 -93.4730 110° East 430 495 31,400 1,694 Climbing FlightAware ADS-B
Mon 04:52:42 PM 39.9570 -93.3730 110° East 437 503 32,300 1,129 Climbing FlightAware ADS-B
Mon 04:53:27 PM 39.9250 -93.2600 110° East 445 512 33,000 494 Climbing FlightAware ADS-B
Mon 04:54:07 PM 39.8980 -93.1570 109° East 446 513 33,000  Level FlightAware ADS-B
Mon 04:54:47 PM 39.8950 -93.0510 92° East 447 514 33,000  Level FlightAware ADS-B
Mon 04:55:32 PM 39.8940 -92.9340 91° East 444 511 33,000  Level FlightAware ADS-B
Mon 04:56:27 PM 39.9070 -92.7870 83° East 439 505 33,000  Level FlightAware ADS-B
Mon 04:57:22 PM 39.9550 -92.6650 63° Northeast 440 506 33,000  Level FlightAware ADS-B
Mon 04:58:07 PM 39.9990 -92.5540 63° Northeast 437 503 33,000  Level FlightAware ADS-B
Mon 04:58:47 PM 40.0350 -92.4620 63° Northeast 436 502 33,000  Level FlightAware ADS-B
Mon 04:59:22 PM 40.0680 -92.3830 61° Northeast 435 501 33,000  Level FlightAware ADS-B
Mon 05:00:07 PM 40.1120 -92.2750 62° Northeast 433 498 33,000  Level FlightAware ADS-B
Mon 05:01:07 PM 40.1660 -92.1420 62° Northeast 433 498 33,000  Level FlightAware ADS-B
Mon 05:01:42 PM 40.1990 -92.0600 62° Northeast 431 496 33,000  Level FlightAware ADS-B
Mon 05:02:27 PM 40.2410 -91.9560 62° Northeast 432 497 33,000  Level FlightAware ADS-B
Mon 05:03:12 PM 40.2840 -91.8510 62° Northeast 431 496 33,000  Level FlightAware ADS-B
Mon 05:04:07 PM 40.3350 -91.7240 62° Northeast 428 493 33,000  Level FlightAware ADS-B
Mon 05:04:52 PM 40.3740 -91.6250 63° Northeast 429 494 33,000  Level FlightAware ADS-B
Mon 05:05:27 PM 40.4050 -91.5490 62° Northeast 429 494 33,000  Level FlightAware ADS-B
Mon 05:06:27 PM 40.4610 -91.4070 63° Northeast 427 491 33,000  Level FlightAware ADS-B
Mon 05:07:12 PM 40.5020 -91.3020 63° Northeast 426 490 33,000  Level FlightAware ADS-B
Mon 05:07:52 PM 40.5380 -91.2100 63° Northeast 425 489 33,000  Level FlightAware ADS-B
Mon 05:08:37 PM 40.5810 -91.1020 62° Northeast 423 487 33,000  Level FlightAware ADS-B
Mon 05:09:12 PM 40.6120 -91.0220 63° Northeast 423 487 33,000 -150 Level FlightAware ADS-B
Mon 05:09:57 PM 40.6530 -90.9190 62° Northeast 420 483 32,800 -400 Descending FlightAware ADS-B
Mon 05:10:42 PM 40.6900 -90.8230 63° Northeast 409 471 32,400 -494 Descending FlightAware ADS-B
Mon 05:11:22 PM 40.7240 -90.7350 63° Northeast 400 460 32,100 -424 Descending FlightAware ADS-B
Mon 05:12:07 PM 40.7630 -90.6340 63° Northeast 397 457 31,800 -424 Descending FlightAware ADS-B
Mon 05:12:47 PM 40.7970 -90.5460 63° Northeast 397 457 31,500 -640 Descending FlightAware ADS-B
Mon 05:13:22 PM 40.8240 -90.4760 63° Northeast 394 453 31,000 -918 Descending FlightAware ADS-B
Mon 05:14:12 PM 40.8640 -90.3720 63° Northeast 392 451 30,200 -1,000 Descending FlightAware ADS-B
Mon 05:14:52 PM 40.8980 -90.2820 63° Northeast 388 447 29,500 -1,011 Descending FlightAware ADS-B
Mon 05:15:47 PM 40.9430 -90.1630 63° Northeast 385 443 28,600 -1,020 Descending FlightAware ADS-B
Mon 05:16:32 PM 40.9780 -90.0710 63° Northeast 381 438 27,800 -1,059 Descending FlightAware ADS-B
Mon 05:17:12 PM 41.0100 -89.9880 63° Northeast 376 433 27,100 -988 Descending FlightAware ADS-B
Mon 05:17:57 PM 41.0450 -89.8950 63° Northeast 384 442 26,400 -847 Descending FlightAware ADS-B
Mon 05:18:37 PM 41.0780 -89.8070 64° Northeast 408 470 25,900 -900 Descending FlightAware ADS-B
Mon 05:19:17 PM 41.1120 -89.7160 64° Northeast 406 467 25,200 -1,059 Descending FlightAware ADS-B
Mon 05:20:02 PM 41.1490 -89.6180 63° Northeast 401 461 24,400 -1,500 Descending FlightAware ADS-B
Mon 05:20:57 PM 41.1960 -89.4990 62° Northeast 391 450 22,700 -1,895 Descending FlightAware ADS-B
Mon 05:21:37 PM 41.2300 -89.4140 62° Northeast 386 444 21,400 -1,835 Descending FlightAware ADS-B
Mon 05:22:22 PM 41.2650 -89.3270 62° Northeast 381 438 20,100 -1,765 Descending FlightAware ADS-B
Mon 05:23:02 PM 41.3000 -89.2410 62° Northeast 372 428 18,900 -1,800 Descending FlightAware ADS-B
Mon 05:23:42 PM 41.3320 -89.1620 62° Northeast 365 420 17,700 -1,835 Descending FlightAware ADS-B
Mon 05:24:27 PM 41.3670 -89.0720 63° Northeast 359 413 16,300 -1,835 Descending FlightAware ADS-B
Mon 05:25:07 PM 41.3990 -88.9930 62° Northeast 355 409 15,100 -1,765 Descending FlightAware ADS-B
Mon 05:25:52 PM 41.4320 -88.9100 62° Northeast 349 402 13,800 -1,694 Descending FlightAware ADS-B
Mon 05:26:32 PM 41.4620 -88.8340 62° Northeast 343 395 12,700 -1,725 Descending FlightAware ADS-B
Mon 05:27:12 PM 41.4930 -88.7570 62° Northeast 334 384 11,500 -1,271 Descending FlightAware ADS-B
Mon 05:27:57 PM 41.5230 -88.6800 62° Northeast 320 368 10,900 -424 Descending FlightAware ADS-B
Mon 05:28:37 PM 41.5490 -88.6150 62° Northeast 292 336 10,900 71 Level FlightAware ADS-B
Mon 05:29:22 PM 41.5770 -88.5430 63° Northeast 286 329 11,000  Climbing FlightAware ADS-B
Mon 05:30:02 PM 41.5990 -88.4810 65° Northeast 262 302 10,900 -75 Descending FlightAware ADS-B
Mon 05:30:42 PM 41.6170 -88.4250 67° East 241 277 10,900 -847 Level FlightAware ADS-B
Mon 05:31:27 PM 41.6370 -88.3630 67° East 235 270 9,700 -1,440 Descending FlightAware ADS-B
Mon 05:31:57 PM 41.6500 -88.3230 66° East 230 265 9,100 -1,200 Descending FlightAware ADS-B
Mon 05:32:22 PM 41.6600 -88.2910 67° East 222 255 8,600 -873 Descending FlightAware ADS-B
Mon 05:32:52 PM 41.6710 -88.2570 67° East 198 228 8,300 -800 Descending FlightAware ADS-B
Mon 05:33:22 PM 41.6820 -88.2250 65° Northeast 181 208 7,800 -1,050 Descending FlightAware ADS-B
Mon 05:33:32 PM 41.6880 -88.2160 48° Northeast 181 208 7,600 -1,440 Descending FlightAware ADS-B
Mon 05:33:47 PM 41.6970 -88.2030 47° Northeast 181 208 7,200 -1,467 Descending FlightAware ADS-B
Mon 05:34:17 PM 41.7150 -88.1790 45° Northeast 185 213 6,500 -1,418 Descending FlightAware ADS-B
Mon 05:34:42 PM 41.7310 -88.1610 40° Northeast 189 217 5,900 -1,309 Descending FlightAware ADS-B
Mon 05:35:12 PM 41.7510 -88.1380 41° Northeast 194 223 5,300 -800 Descending FlightAware ADS-B
Mon 05:35:42 PM 41.7710 -88.1140 42° Northeast 189 217 5,100 -436 Descending FlightAware ADS-B
Mon 05:36:07 PM 41.7870 -88.0950 42° Northeast 182 209 4,900 -764 Descending FlightAware ADS-B
Mon 05:36:37 PM 41.8070 -88.0720 41° Northeast 185 213 4,400 -982 Descending FlightAware ADS-B
Mon 05:37:02 PM 41.8220 -88.0540 42° Northeast 178 205 4,000 -982 Descending FlightAware ADS-B
Mon 05:37:32 PM 41.8400 -88.0330 41° Northeast 179 206 3,500 -982 Descending FlightAware ADS-B
Mon 05:37:57 PM 41.8570 -88.0140 40° Northeast 177 204 3,100 -982 Descending FlightAware ADS-B
Mon 05:38:27 PM 41.8760 -87.9910 42° Northeast 177 204 2,600 -933 Descending FlightAware ADS-B
Mon 05:38:42 PM 41.8840 -87.9810 43° Northeast 177 204 2,400 -933 Descending FlightAware ADS-B
Mon 05:39:12 PM 41.9020 -87.9600 41° Northeast 166 191 1,900 -873 Descending FlightAware ADS-B
Mon 05:39:37 PM 41.9160 -87.9430 42° Northeast 147 169 1,600 -764 Descending FlightAware ADS-B
Mon 05:40:07 PM 41.9300 -87.9270 40° Northeast 142 163 1,200 -720 Descending FlightAware ADS-B
Mon 05:40:27 PM 41.9400 -87.9150 42° Northeast 141 162 1,000 -750 Descending FlightAware ADS-B
Mon 05:40:47 PM 41.9500 -87.9030 42° Northeast 140 161 700 -900 Descending FlightAware ADS-B

Login

Don't have an account? Register now (free) for customized features, flight alerts, and more!